sensor_id;sensor_type;location;lat;lon;timestamp;P1;durP1;ratioP1;P2;durP2;ratioP2
26620;SDS011;14253;44.840;10.444;2023-12-07T00:01:35;15.13;;;9.88;;
26620;SDS011;14253;44.840;10.444;2023-12-07T00:04:02;16.38;;;9.43;;
26620;SDS011;14253;44.840;10.444;2023-12-07T00:06:29;17.33;;;9.93;;
26620;SDS011;14253;44.840;10.444;2023-12-07T00:08:55;18.35;;;10.75;;
26620;SDS011;14253;44.840;10.444;2023-12-07T00:11:23;17.48;;;9.68;;
26620;SDS011;14253;44.840;10.444;2023-12-07T00:13:50;17.25;;;9.70;;
26620;SDS011;14253;44.840;10.444;2023-12-07T00:16:16;18.75;;;9.90;;
26620;SDS011;14253;44.840;10.444;2023-12-07T00:18:42;16.02;;;9.55;;
26620;SDS011;14253;44.840;10.444;2023-12-07T00:21:08;17.60;;;9.70;;
26620;SDS011;14253;44.840;10.444;2023-12-07T00:23:35;16.92;;;10.00;;
26620;SDS011;14253;44.840;10.444;2023-12-07T00:26:03;19.13;;;10.18;;
26620;SDS011;14253;44.840;10.444;2023-12-07T00:28:30;17.30;;;9.77;;
26620;SDS011;14253;44.840;10.444;2023-12-07T00:30:56;16.48;;;9.68;;
26620;SDS011;14253;44.840;10.444;2023-12-07T00:33:22;19.15;;;10.15;;
26620;SDS011;14253;44.840;10.444;2023-12-07T00:35:48;17.65;;;9.85;;
26620;SDS011;14253;44.840;10.444;2023-12-07T00:38:15;20.08;;;9.93;;
26620;SDS011;14253;44.840;10.444;2023-12-07T00:40:41;17.42;;;9.50;;
26620;SDS011;14253;44.840;10.444;2023-12-07T00:43:07;17.02;;;8.48;;
26620;SDS011;14253;44.840;10.444;2023-12-07T00:45:33;18.65;;;8.73;;
26620;SDS011;14253;44.840;10.444;2023-12-07T00:47:59;12.85;;;8.02;;
26620;SDS011;14253;44.840;10.444;2023-12-07T00:50:25;14.85;;;8.00;;
26620;SDS011;14253;44.840;10.444;2023-12-07T00:52:51;15.07;;;8.10;;
26620;SDS011;14253;44.840;10.444;2023-12-07T00:55:17;16.23;;;8.00;;
26620;SDS011;14253;44.840;10.444;2023-12-07T00:57:43;12.40;;;7.68;;
26620;SDS011;14253;44.840;10.444;2023-12-07T01:00:09;14.25;;;8.43;;
26620;SDS011;14253;44.840;10.444;2023-12-07T01:02:35;12.95;;;7.90;;
26620;SDS011;14253;44.840;10.444;2023-12-07T01:05:01;14.57;;;7.70;;
26620;SDS011;14253;44.840;10.444;2023-12-07T01:07:31;17.55;;;8.27;;
26620;SDS011;14253;44.840;10.444;2023-12-07T01:10:10;14.07;;;7.70;;
26620;SDS011;14253;44.840;10.444;2023-12-07T01:12:51;13.52;;;7.68;;
26620;SDS011;14253;44.840;10.444;2023-12-07T01:15:27;13.93;;;7.55;;
26620;SDS011;14253;44.840;10.444;2023-12-07T01:17:54;12.20;;;8.00;;
26620;SDS011;14253;44.840;10.444;2023-12-07T01:20:20;12.27;;;7.82;;
26620;SDS011;14253;44.840;10.444;2023-12-07T01:22:46;13.57;;;7.40;;
26620;SDS011;14253;44.840;10.444;2023-12-07T01:25:12;14.02;;;8.07;;
26620;SDS011;14253;44.840;10.444;2023-12-07T01:27:42;14.15;;;8.38;;
26620;SDS011;14253;44.840;10.444;2023-12-07T01:30:08;12.75;;;7.55;;
26620;SDS011;14253;44.840;10.444;2023-12-07T01:32:34;14.77;;;7.88;;
26620;SDS011;14253;44.840;10.444;2023-12-07T01:35:00;14.88;;;7.45;;
26620;SDS011;14253;44.840;10.444;2023-12-07T01:37:26;13.88;;;7.57;;
26620;SDS011;14253;44.840;10.444;2023-12-07T01:39:52;12.77;;;8.00;;
26620;SDS011;14253;44.840;10.444;2023-12-07T01:42:18;11.32;;;7.70;;
26620;SDS011;14253;44.840;10.444;2023-12-07T01:44:44;11.68;;;6.82;;
26620;SDS011;14253;44.840;10.444;2023-12-07T01:47:10;12.23;;;6.65;;
26620;SDS011;14253;44.840;10.444;2023-12-07T01:49:36;14.35;;;6.53;;
26620;SDS011;14253;44.840;10.444;2023-12-07T01:52:03;11.48;;;6.72;;
26620;SDS011;14253;44.840;10.444;2023-12-07T01:54:30;10.75;;;6.85;;
26620;SDS011;14253;44.840;10.444;2023-12-07T01:56:57;11.80;;;6.75;;
26620;SDS011;14253;44.840;10.444;2023-12-07T01:59:23;11.57;;;6.30;;
26620;SDS011;14253;44.840;10.444;2023-12-07T02:01:49;10.80;;;6.40;;
26620;SDS011;14253;44.840;10.444;2023-12-07T02:04:16;10.85;;;6.35;;
26620;SDS011;14253;44.840;10.444;2023-12-07T02:06:42;10.93;;;6.93;;
26620;SDS011;14253;44.840;10.444;2023-12-07T02:09:08;13.95;;;6.85;;
26620;SDS011;14253;44.840;10.444;2023-12-07T02:11:34;11.02;;;6.22;;
26620;SDS011;14253;44.840;10.444;2023-12-07T02:14:00;11.23;;;6.28;;
26620;SDS011;14253;44.840;10.444;2023-12-07T02:16:29;9.80;;;5.97;;
26620;SDS011;14253;44.840;10.444;2023-12-07T02:24:45;11.50;;;6.20;;
26620;SDS011;14253;44.840;10.444;2023-12-07T02:27:38;12.15;;;6.75;;
26620;SDS011;14253;44.840;10.444;2023-12-07T02:30:06;10.95;;;6.22;;
26620;SDS011;14253;44.840;10.444;2023-12-07T02:32:34;12.63;;;6.68;;
26620;SDS011;14253;44.840;10.444;2023-12-07T02:35:04;12.57;;;6.72;;
26620;SDS011;14253;44.840;10.444;2023-12-07T02:37:32;13.43;;;7.13;;
26620;SDS011;14253;44.840;10.444;2023-12-07T02:40:06;11.35;;;6.80;;
26620;SDS011;14253;44.840;10.444;2023-12-07T02:42:36;12.93;;;7.57;;
26620;SDS011;14253;44.840;10.444;2023-12-07T02:45:04;11.70;;;6.43;;
26620;SDS011;14253;44.840;10.444;2023-12-07T02:47:31;10.23;;;5.93;;
26620;SDS011;14253;44.840;10.444;2023-12-07T02:49:57;12.05;;;6.78;;
26620;SDS011;14253;44.840;10.444;2023-12-07T02:52:23;13.23;;;6.75;;
26620;SDS011;14253;44.840;10.444;2023-12-07T02:54:48;12.15;;;6.47;;
26620;SDS011;14253;44.840;10.444;2023-12-07T02:57:14;9.32;;;6.22;;
26620;SDS011;14253;44.840;10.444;2023-12-07T02:59:40;9.35;;;5.88;;
26620;SDS011;14253;44.840;10.444;2023-12-07T03:02:06;16.85;;;8.30;;
26620;SDS011;14253;44.840;10.444;2023-12-07T03:04:32;16.77;;;7.40;;
26620;SDS011;14253;44.840;10.444;2023-12-07T03:06:58;13.07;;;6.70;;
26620;SDS011;14253;44.840;10.444;2023-12-07T03:09:24;13.68;;;6.93;;
26620;SDS011;14253;44.840;10.444;2023-12-07T03:11:50;12.63;;;6.55;;
26620;SDS011;14253;44.840;10.444;2023-12-07T03:14:16;14.43;;;8.27;;
26620;SDS011;14253;44.840;10.444;2023-12-07T03:16:44;15.93;;;7.35;;
26620;SDS011;14253;44.840;10.444;2023-12-07T03:19:11;14.35;;;7.43;;
26620;SDS011;14253;44.840;10.444;2023-12-07T03:21:40;13.27;;;6.40;;
26620;SDS011;14253;44.840;10.444;2023-12-07T03:24:09;9.98;;;5.13;;
26620;SDS011;14253;44.840;10.444;2023-12-07T03:26:36;10.30;;;5.85;;
26620;SDS011;14253;44.840;10.444;2023-12-07T03:29:02;14.45;;;8.75;;
26620;SDS011;14253;44.840;10.444;2023-12-07T03:31:28;12.15;;;6.85;;
26620;SDS011;14253;44.840;10.444;2023-12-07T03:33:55;11.35;;;5.82;;
26620;SDS011;14253;44.840;10.444;2023-12-07T03:36:21;9.30;;;5.72;;
26620;SDS011;14253;44.840;10.444;2023-12-07T03:38:48;10.25;;;6.13;;
26620;SDS011;14253;44.840;10.444;2023-12-07T03:41:14;11.90;;;5.72;;
26620;SDS011;14253;44.840;10.444;2023-12-07T03:43:40;10.73;;;4.95;;
26620;SDS011;14253;44.840;10.444;2023-12-07T03:46:06;8.43;;;5.50;;
26620;SDS011;14253;44.840;10.444;2023-12-07T03:48:33;11.20;;;5.03;;
26620;SDS011;14253;44.840;10.444;2023-12-07T03:51:00;10.00;;;5.25;;
26620;SDS011;14253;44.840;10.444;2023-12-07T03:53:27;7.80;;;5.05;;
26620;SDS011;14253;44.840;10.444;2023-12-07T03:55:53;8.48;;;4.90;;
26620;SDS011;14253;44.840;10.444;2023-12-07T03:58:20;7.00;;;4.25;;
26620;SDS011;14253;44.840;10.444;2023-12-07T04:00:46;9.70;;;4.78;;
26620;SDS011;14253;44.840;10.444;2023-12-07T04:03:12;9.60;;;5.47;;
26620;SDS011;14253;44.840;10.444;2023-12-07T04:05:38;8.13;;;4.82;;
26620;SDS011;14253;44.840;10.444;2023-12-07T04:08:04;7.95;;;4.40;;
26620;SDS011;14253;44.840;10.444;2023-12-07T04:10:31;10.35;;;5.18;;
26620;SDS011;14253;44.840;10.444;2023-12-07T04:12:57;8.20;;;4.90;;
26620;SDS011;14253;44.840;10.444;2023-12-07T04:15:23;9.68;;;5.75;;
26620;SDS011;14253;44.840;10.444;2023-12-07T04:17:49;10.50;;;5.25;;
26620;SDS011;14253;44.840;10.444;2023-12-07T04:20:15;8.63;;;4.95;;
26620;SDS011;14253;44.840;10.444;2023-12-07T04:22:42;7.22;;;4.00;;
26620;SDS011;14253;44.840;10.444;2023-12-07T04:25:10;9.45;;;4.68;;
26620;SDS011;14253;44.840;10.444;2023-12-07T04:27:36;8.05;;;4.63;;
26620;SDS011;14253;44.840;10.444;2023-12-07T04:30:02;9.98;;;5.50;;
26620;SDS011;14253;44.840;10.444;2023-12-07T04:32:29;7.93;;;4.15;;
26620;SDS011;14253;44.840;10.444;2023-12-07T04:34:55;8.15;;;4.35;;
26620;SDS011;14253;44.840;10.444;2023-12-07T04:37:21;7.10;;;4.45;;
26620;SDS011;14253;44.840;10.444;2023-12-07T04:39:47;9.07;;;4.72;;
26620;SDS011;14253;44.840;10.444;2023-12-07T04:42:13;7.68;;;4.22;;
26620;SDS011;14253;44.840;10.444;2023-12-07T04:44:39;10.55;;;6.03;;
26620;SDS011;14253;44.840;10.444;2023-12-07T04:47:05;7.63;;;4.25;;
26620;SDS011;14253;44.840;10.444;2023-12-07T04:49:31;8.23;;;4.85;;
26620;SDS011;14253;44.840;10.444;2023-12-07T04:51:57;7.93;;;4.85;;
26620;SDS011;14253;44.840;10.444;2023-12-07T04:54:23;14.23;;;5.35;;
26620;SDS011;14253;44.840;10.444;2023-12-07T04:56:49;8.48;;;4.63;;
26620;SDS011;14253;44.840;10.444;2023-12-07T04:59:14;12.52;;;5.22;;
26620;SDS011;14253;44.840;10.444;2023-12-07T05:01:40;9.80;;;4.65;;
26620;SDS011;14253;44.840;10.444;2023-12-07T05:04:06;9.48;;;5.28;;
26620;SDS011;14253;44.840;10.444;2023-12-07T05:06:32;7.93;;;4.93;;
26620;SDS011;14253;44.840;10.444;2023-12-07T05:08:59;8.70;;;4.50;;
26620;SDS011;14253;44.840;10.444;2023-12-07T05:11:25;7.90;;;4.25;;
26620;SDS011;14253;44.840;10.444;2023-12-07T05:13:51;7.90;;;4.30;;
26620;SDS011;14253;44.840;10.444;2023-12-07T05:16:17;7.05;;;4.65;;
26620;SDS011;14253;44.840;10.444;2023-12-07T05:18:43;8.55;;;4.03;;
26620;SDS011;14253;44.840;10.444;2023-12-07T05:21:09;5.75;;;3.88;;
26620;SDS011;14253;44.840;10.444;2023-12-07T05:23:36;9.07;;;4.22;;
26620;SDS011;14253;44.840;10.444;2023-12-07T05:26:02;8.13;;;4.50;;
26620;SDS011;14253;44.840;10.444;2023-12-07T05:28:28;8.40;;;4.00;;
26620;SDS011;14253;44.840;10.444;2023-12-07T05:30:54;6.13;;;4.07;;
26620;SDS011;14253;44.840;10.444;2023-12-07T05:33:22;5.90;;;3.78;;
26620;SDS011;14253;44.840;10.444;2023-12-07T05:35:48;9.70;;;4.00;;
26620;SDS011;14253;44.840;10.444;2023-12-07T05:38:14;7.60;;;3.42;;
26620;SDS011;14253;44.840;10.444;2023-12-07T05:40:40;8.35;;;3.30;;
26620;SDS011;14253;44.840;10.444;2023-12-07T05:43:06;5.95;;;3.28;;
26620;SDS011;14253;44.840;10.444;2023-12-07T05:45:33;9.45;;;3.92;;
26620;SDS011;14253;44.840;10.444;2023-12-07T05:47:59;7.22;;;3.38;;
26620;SDS011;14253;44.840;10.444;2023-12-07T05:50:25;5.22;;;2.90;;
26620;SDS011;14253;44.840;10.444;2023-12-07T05:52:51;7.22;;;3.55;;
26620;SDS011;14253;44.840;10.444;2023-12-07T05:55:17;10.45;;;3.33;;
26620;SDS011;14253;44.840;10.444;2023-12-07T05:57:48;7.25;;;2.95;;
26620;SDS011;14253;44.840;10.444;2023-12-07T06:00:14;6.03;;;2.55;;
26620;SDS011;14253;44.840;10.444;2023-12-07T06:02:41;5.07;;;2.60;;
26620;SDS011;14253;44.840;10.444;2023-12-07T06:05:08;5.82;;;2.65;;
26620;SDS011;14253;44.840;10.444;2023-12-07T06:07:34;17.40;;;10.57;;
26620;SDS011;14253;44.840;10.444;2023-12-07T06:10:00;21.25;;;13.65;;
26620;SDS011;14253;44.840;10.444;2023-12-07T06:12:26;14.48;;;8.93;;
26620;SDS011;14253;44.840;10.444;2023-12-07T06:14:52;8.18;;;5.18;;
26620;SDS011;14253;44.840;10.444;2023-12-07T06:17:18;8.23;;;4.85;;
26620;SDS011;14253;44.840;10.444;2023-12-07T06:19:45;7.07;;;4.35;;
26620;SDS011;14253;44.840;10.444;2023-12-07T06:22:10;7.00;;;4.10;;
26620;SDS011;14253;44.840;10.444;2023-12-07T06:24:39;5.72;;;4.05;;
26620;SDS011;14253;44.840;10.444;2023-12-07T06:27:05;8.82;;;4.47;;
26620;SDS011;14253;44.840;10.444;2023-12-07T06:29:32;9.98;;;4.15;;
26620;SDS011;14253;44.840;10.444;2023-12-07T06:31:57;8.63;;;3.95;;
26620;SDS011;14253;44.840;10.444;2023-12-07T06:34:25;7.03;;;4.40;;
26620;SDS011;14253;44.840;10.444;2023-12-07T06:36:51;6.57;;;4.63;;
26620;SDS011;14253;44.840;10.444;2023-12-07T06:39:17;6.30;;;4.85;;
26620;SDS011;14253;44.840;10.444;2023-12-07T06:41:43;6.07;;;4.15;;
26620;SDS011;14253;44.840;10.444;2023-12-07T06:44:09;7.53;;;4.70;;
26620;SDS011;14253;44.840;10.444;2023-12-07T06:46:35;7.10;;;4.68;;
26620;SDS011;14253;44.840;10.444;2023-12-07T06:49:01;8.10;;;4.65;;
26620;SDS011;14253;44.840;10.444;2023-12-07T06:51:27;10.65;;;7.20;;
26620;SDS011;14253;44.840;10.444;2023-12-07T06:53:53;14.57;;;9.02;;
26620;SDS011;14253;44.840;10.444;2023-12-07T06:56:19;11.43;;;5.88;;
26620;SDS011;14253;44.840;10.444;2023-12-07T06:58:45;8.75;;;5.30;;
26620;SDS011;14253;44.840;10.444;2023-12-07T07:01:11;10.07;;;5.15;;
26620;SDS011;14253;44.840;10.444;2023-12-07T07:03:38;8.25;;;5.05;;
26620;SDS011;14253;44.840;10.444;2023-12-07T07:06:04;8.05;;;4.82;;
26620;SDS011;14253;44.840;10.444;2023-12-07T07:08:30;9.80;;;5.07;;
26620;SDS011;14253;44.840;10.444;2023-12-07T07:10:56;8.93;;;4.93;;
26620;SDS011;14253;44.840;10.444;2023-12-07T07:13:22;5.90;;;4.63;;
26620;SDS011;14253;44.840;10.444;2023-12-07T07:15:48;9.38;;;5.82;;
26620;SDS011;14253;44.840;10.444;2023-12-07T07:18:14;7.18;;;4.93;;
26620;SDS011;14253;44.840;10.444;2023-12-07T07:20:40;8.80;;;4.13;;
26620;SDS011;14253;44.840;10.444;2023-12-07T07:23:06;8.93;;;3.78;;
26620;SDS011;14253;44.840;10.444;2023-12-07T07:25:33;6.07;;;3.65;;
26620;SDS011;14253;44.840;10.444;2023-12-07T07:28:00;5.07;;;3.50;;
26620;SDS011;14253;44.840;10.444;2023-12-07T07:30:26;5.10;;;3.05;;
26620;SDS011;14253;44.840;10.444;2023-12-07T07:32:51;5.47;;;2.95;;
26620;SDS011;14253;44.840;10.444;2023-12-07T07:35:17;4.57;;;2.65;;
26620;SDS011;14253;44.840;10.444;2023-12-07T07:37:43;6.63;;;2.78;;
26620;SDS011;14253;44.840;10.444;2023-12-07T07:40:10;3.83;;;2.20;;
26620;SDS011;14253;44.840;10.444;2023-12-07T07:42:37;4.57;;;2.30;;
26620;SDS011;14253;44.840;10.444;2023-12-07T07:45:05;4.15;;;2.30;;
26620;SDS011;14253;44.840;10.444;2023-12-07T07:47:32;4.88;;;2.53;;
26620;SDS011;14253;44.840;10.444;2023-12-07T07:49:58;7.13;;;3.10;;
26620;SDS011;14253;44.840;10.444;2023-12-07T07:52:29;5.68;;;3.25;;
26620;SDS011;14253;44.840;10.444;2023-12-07T07:54:54;6.22;;;2.92;;
26620;SDS011;14253;44.840;10.444;2023-12-07T07:57:20;5.03;;;3.20;;
26620;SDS011;14253;44.840;10.444;2023-12-07T07:59:46;6.68;;;2.75;;
26620;SDS011;14253;44.840;10.444;2023-12-07T08:02:12;5.32;;;2.83;;
26620;SDS011;14253;44.840;10.444;2023-12-07T08:04:38;4.10;;;2.55;;
26620;SDS011;14253;44.840;10.444;2023-12-07T08:07:04;5.43;;;2.97;;
26620;SDS011;14253;44.840;10.444;2023-12-07T08:09:33;8.32;;;3.00;;
26620;SDS011;14253;44.840;10.444;2023-12-07T08:11:59;7.15;;;3.38;;
26620;SDS011;14253;44.840;10.444;2023-12-07T08:14:26;10.63;;;3.50;;
26620;SDS011;14253;44.840;10.444;2023-12-07T08:16:53;7.75;;;3.08;;
26620;SDS011;14253;44.840;10.444;2023-12-07T08:19:19;9.15;;;2.80;;
26620;SDS011;14253;44.840;10.444;2023-12-07T08:21:45;7.90;;;3.53;;
26620;SDS011;14253;44.840;10.444;2023-12-07T08:24:11;5.80;;;3.70;;
26620;SDS011;14253;44.840;10.444;2023-12-07T08:26:38;8.90;;;4.78;;
26620;SDS011;14253;44.840;10.444;2023-12-07T08:29:04;9.32;;;5.05;;
26620;SDS011;14253;44.840;10.444;2023-12-07T08:31:31;9.95;;;4.18;;
26620;SDS011;14253;44.840;10.444;2023-12-07T08:34:00;7.80;;;4.13;;
26620;SDS011;14253;44.840;10.444;2023-12-07T08:36:26;5.15;;;3.63;;
26620;SDS011;14253;44.840;10.444;2023-12-07T08:38:53;7.38;;;3.53;;
26620;SDS011;14253;44.840;10.444;2023-12-07T08:41:19;5.78;;;4.20;;
26620;SDS011;14253;44.840;10.444;2023-12-07T08:43:45;8.25;;;3.50;;
26620;SDS011;14253;44.840;10.444;2023-12-07T08:46:11;9.65;;;3.97;;
26620;SDS011;14253;44.840;10.444;2023-12-07T08:48:37;10.15;;;4.57;;
26620;SDS011;14253;44.840;10.444;2023-12-07T08:51:03;10.50;;;5.47;;
26620;SDS011;14253;44.840;10.444;2023-12-07T08:53:30;12.73;;;9.75;;
26620;SDS011;14253;44.840;10.444;2023-12-07T08:55:56;14.65;;;8.50;;
26620;SDS011;14253;44.840;10.444;2023-12-07T08:58:22;15.02;;;10.02;;
26620;SDS011;14253;44.840;10.444;2023-12-07T09:00:48;13.43;;;5.10;;
26620;SDS011;14253;44.840;10.444;2023-12-07T09:03:15;13.55;;;5.72;;
26620;SDS011;14253;44.840;10.444;2023-12-07T09:05:41;11.20;;;5.70;;
26620;SDS011;14253;44.840;10.444;2023-12-07T09:08:07;10.77;;;5.85;;
26620;SDS011;14253;44.840;10.444;2023-12-07T09:10:33;12.25;;;5.55;;
26620;SDS011;14253;44.840;10.444;2023-12-07T09:12:59;9.77;;;5.45;;
26620;SDS011;14253;44.840;10.444;2023-12-07T09:15:25;15.43;;;11.55;;
26620;SDS011;14253;44.840;10.444;2023-12-07T09:17:51;15.88;;;10.30;;
26620;SDS011;14253;44.840;10.444;2023-12-07T09:20:17;12.50;;;7.97;;
26620;SDS011;14253;44.840;10.444;2023-12-07T09:22:43;10.68;;;5.43;;
26620;SDS011;14253;44.840;10.444;2023-12-07T09:25:11;13.20;;;6.00;;
26620;SDS011;14253;44.840;10.444;2023-12-07T09:27:37;9.25;;;4.90;;
26620;SDS011;14253;44.840;10.444;2023-12-07T09:30:05;9.48;;;5.40;;
26620;SDS011;14253;44.840;10.444;2023-12-07T09:32:32;13.50;;;5.57;;
26620;SDS011;14253;44.840;10.444;2023-12-07T09:35:06;9.18;;;5.70;;
26620;SDS011;14253;44.840;10.444;2023-12-07T09:37:33;9.20;;;5.18;;
26620;SDS011;14253;44.840;10.444;2023-12-07T09:40:00;12.68;;;5.55;;
26620;SDS011;14253;44.840;10.444;2023-12-07T09:42:26;11.25;;;6.40;;
26620;SDS011;14253;44.840;10.444;2023-12-07T09:44:53;11.48;;;6.55;;
26620;SDS011;14253;44.840;10.444;2023-12-07T09:47:20;11.88;;;5.22;;
26620;SDS011;14253;44.840;10.444;2023-12-07T09:49:46;9.10;;;5.30;;
26620;SDS011;14253;44.840;10.444;2023-12-07T09:52:12;13.45;;;5.55;;
26620;SDS011;14253;44.840;10.444;2023-12-07T09:54:42;12.18;;;5.50;;
26620;SDS011;14253;44.840;10.444;2023-12-07T09:57:08;12.02;;;5.53;;
26620;SDS011;14253;44.840;10.444;2023-12-07T09:59:35;11.00;;;5.32;;
26620;SDS011;14253;44.840;10.444;2023-12-07T10:02:02;9.32;;;5.15;;
26620;SDS011;14253;44.840;10.444;2023-12-07T10:04:29;10.55;;;5.90;;
26620;SDS011;14253;44.840;10.444;2023-12-07T10:06:56;12.55;;;5.80;;
26620;SDS011;14253;44.840;10.444;2023-12-07T10:09:23;14.02;;;5.95;;
26620;SDS011;14253;44.840;10.444;2023-12-07T10:11:49;13.07;;;5.53;;
26620;SDS011;14253;44.840;10.444;2023-12-07T10:14:27;9.68;;;5.70;;
26620;SDS011;14253;44.840;10.444;2023-12-07T10:16:54;12.35;;;5.13;;
26620;SDS011;14253;44.840;10.444;2023-12-07T10:19:21;8.55;;;5.07;;
26620;SDS011;14253;44.840;10.444;2023-12-07T10:21:50;9.27;;;4.85;;
26620;SDS011;14253;44.840;10.444;2023-12-07T10:24:17;21.38;;;7.78;;
26620;SDS011;14253;44.840;10.444;2023-12-07T10:26:47;7.85;;;4.45;;
26620;SDS011;14253;44.840;10.444;2023-12-07T10:29:17;8.20;;;5.40;;
26620;SDS011;14253;44.840;10.444;2023-12-07T10:32:03;9.52;;;5.22;;
26620;SDS011;14253;44.840;10.444;2023-12-07T10:34:31;11.25;;;5.95;;
26620;SDS011;14253;44.840;10.444;2023-12-07T10:37:01;12.45;;;6.32;;
26620;SDS011;14253;44.840;10.444;2023-12-07T10:39:30;10.80;;;6.80;;
26620;SDS011;14253;44.840;10.444;2023-12-07T10:41:58;11.88;;;6.95;;
26620;SDS011;14253;44.840;10.444;2023-12-07T10:44:31;9.98;;;6.82;;
26620;SDS011;14253;44.840;10.444;2023-12-07T10:47:06;10.30;;;6.80;;
26620;SDS011;14253;44.840;10.444;2023-12-07T10:49:40;10.75;;;6.60;;
26620;SDS011;14253;44.840;10.444;2023-12-07T10:52:12;11.18;;;7.07;;
26620;SDS011;14253;44.840;10.444;2023-12-07T10:54:56;10.68;;;6.65;;
26620;SDS011;14253;44.840;10.444;2023-12-07T10:57:36;12.18;;;7.60;;
26620;SDS011;14253;44.840;10.444;2023-12-07T11:00:07;13.27;;;7.53;;
26620;SDS011;14253;44.840;10.444;2023-12-07T11:02:35;10.65;;;6.55;;
26620;SDS011;14253;44.840;10.444;2023-12-07T11:05:09;10.32;;;6.95;;
26620;SDS011;14253;44.840;10.444;2023-12-07T11:07:42;12.85;;;6.70;;
26620;SDS011;14253;44.840;10.444;2023-12-07T11:11:10;9.90;;;5.75;;
26620;SDS011;14253;44.840;10.444;2023-12-07T11:13:50;8.27;;;5.50;;
26620;SDS011;14253;44.840;10.444;2023-12-07T11:16:40;9.52;;;5.78;;
26620;SDS011;14253;44.840;10.444;2023-12-07T11:21:59;19.40;;;10.27;;
26620;SDS011;14253;44.840;10.444;2023-12-07T11:24:26;11.88;;;6.25;;
26620;SDS011;14253;44.840;10.444;2023-12-07T11:26:56;10.30;;;6.22;;
26620;SDS011;14253;44.840;10.444;2023-12-07T11:29:28;11.93;;;7.38;;
26620;SDS011;14253;44.840;10.444;2023-12-07T11:32:02;13.88;;;7.57;;
26620;SDS011;14253;44.840;10.444;2023-12-07T11:34:36;9.77;;;7.18;;
26620;SDS011;14253;44.840;10.444;2023-12-07T11:37:07;13.90;;;6.82;;
26620;SDS011;14253;44.840;10.444;2023-12-07T11:39:44;13.63;;;7.55;;
26620;SDS011;14253;44.840;10.444;2023-12-07T11:42:13;11.63;;;7.25;;
26620;SDS011;14253;44.840;10.444;2023-12-07T11:44:44;12.43;;;6.85;;
26620;SDS011;14253;44.840;10.444;2023-12-07T11:47:17;10.63;;;6.70;;
26620;SDS011;14253;44.840;10.444;2023-12-07T11:49:49;11.50;;;7.25;;
26620;SDS011;14253;44.840;10.444;2023-12-07T11:52:15;11.75;;;7.28;;
26620;SDS011;14253;44.840;10.444;2023-12-07T11:54:49;10.65;;;6.68;;
26620;SDS011;14253;44.840;10.444;2023-12-07T11:57:20;13.88;;;6.40;;
26620;SDS011;14253;44.840;10.444;2023-12-07T11:59:47;12.85;;;7.47;;
26620;SDS011;14253;44.840;10.444;2023-12-07T12:02:16;14.73;;;8.45;;
26620;SDS011;14253;44.840;10.444;2023-12-07T12:04:44;13.77;;;7.80;;
26620;SDS011;14253;44.840;10.444;2023-12-07T12:07:11;12.57;;;8.07;;
26620;SDS011;14253;44.840;10.444;2023-12-07T12:09:42;15.15;;;8.63;;
26620;SDS011;14253;44.840;10.444;2023-12-07T12:12:10;13.50;;;7.88;;
26620;SDS011;14253;44.840;10.444;2023-12-07T12:17:09;13.18;;;7.85;;
26620;SDS011;14253;44.840;10.444;2023-12-07T12:19:42;12.73;;;7.43;;
26620;SDS011;14253;44.840;10.444;2023-12-07T12:22:10;16.52;;;7.38;;
26620;SDS011;14253;44.840;10.444;2023-12-07T12:24:40;14.18;;;7.85;;
26620;SDS011;14253;44.840;10.444;2023-12-07T12:27:08;14.40;;;8.93;;
26620;SDS011;14253;44.840;10.444;2023-12-07T12:29:38;11.38;;;7.35;;
26620;SDS011;14253;44.840;10.444;2023-12-07T12:32:11;13.55;;;8.23;;
26620;SDS011;14253;44.840;10.444;2023-12-07T12:34:40;12.85;;;7.88;;
26620;SDS011;14253;44.840;10.444;2023-12-07T12:37:07;11.55;;;8.63;;
26620;SDS011;14253;44.840;10.444;2023-12-07T12:39:34;11.32;;;7.00;;
26620;SDS011;14253;44.840;10.444;2023-12-07T12:42:02;11.60;;;7.93;;
26620;SDS011;14253;44.840;10.444;2023-12-07T12:44:30;17.25;;;8.45;;
26620;SDS011;14253;44.840;10.444;2023-12-07T12:46:57;14.65;;;9.02;;
26620;SDS011;14253;44.840;10.444;2023-12-07T12:49:34;16.20;;;8.23;;
26620;SDS011;14253;44.840;10.444;2023-12-07T12:52:02;12.52;;;8.00;;
26620;SDS011;14253;44.840;10.444;2023-12-07T12:54:32;12.50;;;8.27;;
26620;SDS011;14253;44.840;10.444;2023-12-07T12:56:59;10.85;;;7.50;;
26620;SDS011;14253;44.840;10.444;2023-12-07T12:59:25;16.02;;;8.55;;
26620;SDS011;14253;44.840;10.444;2023-12-07T13:01:55;13.05;;;8.25;;
26620;SDS011;14253;44.840;10.444;2023-12-07T13:04:22;13.20;;;8.25;;
26620;SDS011;14253;44.840;10.444;2023-12-07T13:06:50;12.50;;;7.85;;
26620;SDS011;14253;44.840;10.444;2023-12-07T13:09:16;14.93;;;8.48;;
26620;SDS011;14253;44.840;10.444;2023-12-07T13:11:46;13.95;;;8.27;;
26620;SDS011;14253;44.840;10.444;2023-12-07T13:14:13;13.48;;;8.57;;
26620;SDS011;14253;44.840;10.444;2023-12-07T13:16:40;14.57;;;8.65;;
26620;SDS011;14253;44.840;10.444;2023-12-07T13:19:07;14.38;;;8.50;;
26620;SDS011;14253;44.840;10.444;2023-12-07T13:21:34;13.52;;;8.95;;
26620;SDS011;14253;44.840;10.444;2023-12-07T13:24:02;14.70;;;8.13;;
26620;SDS011;14253;44.840;10.444;2023-12-07T13:26:30;15.48;;;6.97;;
26620;SDS011;14253;44.840;10.444;2023-12-07T13:28:56;9.82;;;7.32;;
26620;SDS011;14253;44.840;10.444;2023-12-07T13:31:23;12.70;;;8.55;;
26620;SDS011;14253;44.840;10.444;2023-12-07T13:33:50;13.48;;;9.27;;
26620;SDS011;14253;44.840;10.444;2023-12-07T13:36:18;13.90;;;8.25;;
26620;SDS011;14253;44.840;10.444;2023-12-07T13:38:46;15.18;;;8.85;;
26620;SDS011;14253;44.840;10.444;2023-12-07T13:41:14;13.13;;;8.25;;
26620;SDS011;14253;44.840;10.444;2023-12-07T13:43:40;12.93;;;8.90;;
26620;SDS011;14253;44.840;10.444;2023-12-07T13:46:08;11.98;;;8.15;;
26620;SDS011;14253;44.840;10.444;2023-12-07T13:48:36;14.82;;;8.98;;
26620;SDS011;14253;44.840;10.444;2023-12-07T13:51:02;14.88;;;8.98;;
26620;SDS011;14253;44.840;10.444;2023-12-07T13:53:30;15.10;;;9.38;;
26620;SDS011;14253;44.840;10.444;2023-12-07T13:56:01;15.13;;;9.23;;
26620;SDS011;14253;44.840;10.444;2023-12-07T13:58:30;15.35;;;8.98;;
26620;SDS011;14253;44.840;10.444;2023-12-07T14:00:57;16.33;;;9.80;;
26620;SDS011;14253;44.840;10.444;2023-12-07T14:03:25;13.52;;;8.75;;
26620;SDS011;14253;44.840;10.444;2023-12-07T14:05:52;15.07;;;10.07;;
26620;SDS011;14253;44.840;10.444;2023-12-07T14:08:19;17.13;;;10.43;;
26620;SDS011;14253;44.840;10.444;2023-12-07T14:10:46;19.60;;;11.50;;
26620;SDS011;14253;44.840;10.444;2023-12-07T14:13:13;17.27;;;10.65;;
26620;SDS011;14253;44.840;10.444;2023-12-07T14:15:43;16.20;;;10.82;;
26620;SDS011;14253;44.840;10.444;2023-12-07T14:18:10;17.27;;;11.43;;
26620;SDS011;14253;44.840;10.444;2023-12-07T14:20:42;16.83;;;10.88;;
26620;SDS011;14253;44.840;10.444;2023-12-07T14:23:09;17.35;;;11.85;;
26620;SDS011;14253;44.840;10.444;2023-12-07T14:25:37;16.73;;;11.00;;
26620;SDS011;14253;44.840;10.444;2023-12-07T14:28:05;21.52;;;11.27;;
26620;SDS011;14253;44.840;10.444;2023-12-07T14:30:32;16.25;;;10.98;;
26620;SDS011;14253;44.840;10.444;2023-12-07T14:33:00;18.67;;;11.73;;
26620;SDS011;14253;44.840;10.444;2023-12-07T14:35:27;21.55;;;12.60;;
26620;SDS011;14253;44.840;10.444;2023-12-07T14:37:55;18.88;;;11.80;;
26620;SDS011;14253;44.840;10.444;2023-12-07T14:40:22;20.05;;;12.90;;